sensor_id;sensor_type;location;lat;lon;timestamp;P1;durP1;ratioP1;P2;durP2;ratioP2
5363;SDS011;2705;41.410;2.160;2023-02-15T00:01:34;21.97;;;15.17;;
5363;SDS011;2705;41.410;2.160;2023-02-15T00:04:04;22.20;;;15.03;;
5363;SDS011;2705;41.410;2.160;2023-02-15T00:06:33;23.47;;;14.93;;
5363;SDS011;2705;41.410;2.160;2023-02-15T00:09:02;26.07;;;16.30;;
5363;SDS011;2705;41.410;2.160;2023-02-15T00:11:31;23.90;;;16.47;;
5363;SDS011;2705;41.410;2.160;2023-02-15T00:14:19;23.50;;;16.30;;
5363;SDS011;2705;41.410;2.160;2023-02-15T00:16:49;26.23;;;16.60;;
5363;SDS011;2705;41.410;2.160;2023-02-15T00:19:19;24.10;;;15.23;;
5363;SDS011;2705;41.410;2.160;2023-02-15T00:21:49;22.30;;;15.27;;
5363;SDS011;2705;41.410;2.160;2023-02-15T00:24:19;27.23;;;16.10;;
5363;SDS011;2705;41.410;2.160;2023-02-15T00:26:48;22.10;;;14.70;;
5363;SDS011;2705;41.410;2.160;2023-02-15T00:29:19;18.93;;;15.00;;
5363;SDS011;2705;41.410;2.160;2023-02-15T00:31:48;23.50;;;14.53;;
5363;SDS011;2705;41.410;2.160;2023-02-15T00:34:19;27.20;;;16.13;;
5363;SDS011;2705;41.410;2.160;2023-02-15T00:36:49;20.97;;;15.20;;
5363;SDS011;2705;41.410;2.160;2023-02-15T00:39:18;22.97;;;15.77;;
5363;SDS011;2705;41.410;2.160;2023-02-15T00:41:48;19.90;;;14.90;;
5363;SDS011;2705;41.410;2.160;2023-02-15T00:44:18;20.27;;;14.50;;
5363;SDS011;2705;41.410;2.160;2023-02-15T00:46:48;20.93;;;14.90;;
5363;SDS011;2705;41.410;2.160;2023-02-15T00:49:17;20.60;;;13.47;;
5363;SDS011;2705;41.410;2.160;2023-02-15T00:51:47;21.97;;;14.27;;
5363;SDS011;2705;41.410;2.160;2023-02-15T00:54:17;20.70;;;14.60;;
5363;SDS011;2705;41.410;2.160;2023-02-15T00:56:46;20.93;;;14.73;;
5363;SDS011;2705;41.410;2.160;2023-02-15T00:59:15;18.30;;;14.13;;
5363;SDS011;2705;41.410;2.160;2023-02-15T01:01:48;15.93;;;12.77;;
5363;SDS011;2705;41.410;2.160;2023-02-15T01:04:18;17.67;;;12.90;;
5363;SDS011;2705;41.410;2.160;2023-02-15T01:06:48;14.90;;;11.77;;
5363;SDS011;2705;41.410;2.160;2023-02-15T01:09:18;15.93;;;12.30;;
5363;SDS011;2705;41.410;2.160;2023-02-15T01:11:47;18.43;;;12.50;;
5363;SDS011;2705;41.410;2.160;2023-02-15T01:14:18;15.20;;;11.73;;
5363;SDS011;2705;41.410;2.160;2023-02-15T01:16:48;15.10;;;11.63;;
5363;SDS011;2705;41.410;2.160;2023-02-15T01:19:18;14.67;;;11.20;;
5363;SDS011;2705;41.410;2.160;2023-02-15T01:21:47;13.90;;;11.40;;
5363;SDS011;2705;41.410;2.160;2023-02-15T01:24:16;15.37;;;11.53;;
5363;SDS011;2705;41.410;2.160;2023-02-15T01:26:46;14.50;;;11.10;;
5363;SDS011;2705;41.410;2.160;2023-02-15T01:29:15;16.80;;;11.77;;
5363;SDS011;2705;41.410;2.160;2023-02-15T01:31:44;19.57;;;11.30;;
5363;SDS011;2705;41.410;2.160;2023-02-15T01:34:16;15.97;;;12.03;;
5363;SDS011;2705;41.410;2.160;2023-02-15T01:36:45;14.70;;;12.00;;
5363;SDS011;2705;41.410;2.160;2023-02-15T01:39:15;15.77;;;12.10;;
5363;SDS011;2705;41.410;2.160;2023-02-15T01:41:44;21.63;;;13.83;;
5363;SDS011;2705;41.410;2.160;2023-02-15T01:47:01;16.47;;;12.97;;
5363;SDS011;2705;41.410;2.160;2023-02-15T01:49:32;17.77;;;13.13;;
5363;SDS011;2705;41.410;2.160;2023-02-15T01:52:01;19.20;;;13.57;;
5363;SDS011;2705;41.410;2.160;2023-02-15T01:54:31;16.70;;;13.53;;
5363;SDS011;2705;41.410;2.160;2023-02-15T01:57:04;19.17;;;13.60;;
5363;SDS011;2705;41.410;2.160;2023-02-15T01:59:35;23.40;;;14.33;;
5363;SDS011;2705;41.410;2.160;2023-02-15T02:02:04;18.87;;;13.73;;
5363;SDS011;2705;41.410;2.160;2023-02-15T02:04:38;19.30;;;14.07;;
5363;SDS011;2705;41.410;2.160;2023-02-15T02:07:09;17.77;;;13.30;;
5363;SDS011;2705;41.410;2.160;2023-02-15T02:09:38;17.43;;;12.80;;
5363;SDS011;2705;41.410;2.160;2023-02-15T02:12:08;20.50;;;14.03;;
5363;SDS011;2705;41.410;2.160;2023-02-15T02:14:38;19.97;;;14.37;;
5363;SDS011;2705;41.410;2.160;2023-02-15T02:17:09;20.90;;;13.63;;
5363;SDS011;2705;41.410;2.160;2023-02-15T02:19:50;19.20;;;13.93;;
5363;SDS011;2705;41.410;2.160;2023-02-15T02:22:27;18.47;;;14.80;;
5363;SDS011;2705;41.410;2.160;2023-02-15T02:27:56;18.87;;;14.47;;
5363;SDS011;2705;41.410;2.160;2023-02-15T02:30:37;16.93;;;12.80;;
5363;SDS011;2705;41.410;2.160;2023-02-15T02:33:16;20.70;;;12.73;;
5363;SDS011;2705;41.410;2.160;2023-02-15T02:35:49;16.93;;;12.80;;
5363;SDS011;2705;41.410;2.160;2023-02-15T02:38:24;13.50;;;10.80;;
5363;SDS011;2705;41.410;2.160;2023-02-15T02:40:58;14.40;;;11.80;;
5363;SDS011;2705;41.410;2.160;2023-02-15T02:43:33;15.17;;;11.87;;
5363;SDS011;2705;41.410;2.160;2023-02-15T02:46:05;16.93;;;11.47;;
5363;SDS011;2705;41.410;2.160;2023-02-15T02:48:38;16.00;;;12.60;;
5363;SDS011;2705;41.410;2.160;2023-02-15T02:51:07;14.60;;;11.50;;
5363;SDS011;2705;41.410;2.160;2023-02-15T02:53:37;15.87;;;11.17;;
5363;SDS011;2705;41.410;2.160;2023-02-15T02:56:09;12.80;;;10.50;;
5363;SDS011;2705;41.410;2.160;2023-02-15T02:58:44;14.57;;;11.40;;
5363;SDS011;2705;41.410;2.160;2023-02-15T03:01:17;21.87;;;11.53;;
5363;SDS011;2705;41.410;2.160;2023-02-15T03:03:51;17.40;;;11.80;;
5363;SDS011;2705;41.410;2.160;2023-02-15T03:06:24;14.43;;;11.73;;
5363;SDS011;2705;41.410;2.160;2023-02-15T03:08:56;14.87;;;11.10;;
5363;SDS011;2705;41.410;2.160;2023-02-15T03:11:28;16.47;;;10.53;;
5363;SDS011;2705;41.410;2.160;2023-02-15T03:13:59;14.73;;;12.13;;
5363;SDS011;2705;41.410;2.160;2023-02-15T03:16:28;15.53;;;10.40;;
5363;SDS011;2705;41.410;2.160;2023-02-15T03:19:00;14.40;;;11.27;;
5363;SDS011;2705;41.410;2.160;2023-02-15T03:21:32;13.57;;;10.17;;
5363;SDS011;2705;41.410;2.160;2023-02-15T03:24:07;14.17;;;10.73;;
5363;SDS011;2705;41.410;2.160;2023-02-15T03:26:37;16.10;;;10.67;;
5363;SDS011;2705;41.410;2.160;2023-02-15T03:29:08;13.20;;;10.60;;
5363;SDS011;2705;41.410;2.160;2023-02-15T03:31:38;14.97;;;11.20;;
5363;SDS011;2705;41.410;2.160;2023-02-15T03:34:11;13.33;;;11.00;;
5363;SDS011;2705;41.410;2.160;2023-02-15T03:36:43;14.70;;;11.00;;
5363;SDS011;2705;41.410;2.160;2023-02-15T03:39:17;13.30;;;9.73;;
5363;SDS011;2705;41.410;2.160;2023-02-15T03:41:50;16.10;;;11.20;;
5363;SDS011;2705;41.410;2.160;2023-02-15T03:44:23;13.37;;;10.63;;
5363;SDS011;2705;41.410;2.160;2023-02-15T03:46:54;16.10;;;11.27;;
5363;SDS011;2705;41.410;2.160;2023-02-15T03:49:27;12.37;;;10.70;;
5363;SDS011;2705;41.410;2.160;2023-02-15T03:51:58;16.60;;;10.93;;
5363;SDS011;2705;41.410;2.160;2023-02-15T03:54:28;15.87;;;11.60;;
5363;SDS011;2705;41.410;2.160;2023-02-15T03:57:11;11.93;;;10.20;;
5363;SDS011;2705;41.410;2.160;2023-02-15T03:59:59;14.93;;;11.60;;
5363;SDS011;2705;41.410;2.160;2023-02-15T04:02:50;15.00;;;10.97;;
5363;SDS011;2705;41.410;2.160;2023-02-15T04:05:23;15.83;;;11.77;;
5363;SDS011;2705;41.410;2.160;2023-02-15T04:07:52;19.40;;;12.17;;
5363;SDS011;2705;41.410;2.160;2023-02-15T04:10:21;17.33;;;12.50;;
5363;SDS011;2705;41.410;2.160;2023-02-15T04:13:08;15.50;;;11.40;;
5363;SDS011;2705;41.410;2.160;2023-02-15T04:15:37;15.00;;;11.83;;
5363;SDS011;2705;41.410;2.160;2023-02-15T04:18:24;16.20;;;12.70;;
5363;SDS011;2705;41.410;2.160;2023-02-15T04:21:12;15.37;;;11.90;;
5363;SDS011;2705;41.410;2.160;2023-02-15T04:24:00;15.37;;;11.77;;
5363;SDS011;2705;41.410;2.160;2023-02-15T04:26:46;18.53;;;12.30;;
5363;SDS011;2705;41.410;2.160;2023-02-15T04:29:15;15.10;;;12.30;;
5363;SDS011;2705;41.410;2.160;2023-02-15T04:31:45;14.67;;;12.10;;
5363;SDS011;2705;41.410;2.160;2023-02-15T04:34:14;12.50;;;10.47;;
5363;SDS011;2705;41.410;2.160;2023-02-15T04:36:45;13.47;;;11.40;;
5363;SDS011;2705;41.410;2.160;2023-02-15T04:39:15;14.27;;;11.63;;
5363;SDS011;2705;41.410;2.160;2023-02-15T04:41:45;17.87;;;11.70;;
5363;SDS011;2705;41.410;2.160;2023-02-15T04:44:15;16.00;;;12.83;;
5363;SDS011;2705;41.410;2.160;2023-02-15T04:46:44;16.00;;;12.73;;
5363;SDS011;2705;41.410;2.160;2023-02-15T04:49:13;16.80;;;12.63;;
5363;SDS011;2705;41.410;2.160;2023-02-15T04:51:43;15.70;;;11.23;;
5363;SDS011;2705;41.410;2.160;2023-02-15T04:54:14;23.43;;;12.13;;
5363;SDS011;2705;41.410;2.160;2023-02-15T04:56:43;14.60;;;11.57;;
5363;SDS011;2705;41.410;2.160;2023-02-15T04:59:12;16.40;;;12.23;;
5363;SDS011;2705;41.410;2.160;2023-02-15T05:01:42;15.70;;;12.13;;
5363;SDS011;2705;41.410;2.160;2023-02-15T05:04:11;16.27;;;12.10;;
5363;SDS011;2705;41.410;2.160;2023-02-15T05:06:41;15.60;;;12.10;;
5363;SDS011;2705;41.410;2.160;2023-02-15T05:09:10;14.93;;;11.50;;
5363;SDS011;2705;41.410;2.160;2023-02-15T05:11:41;21.07;;;12.80;;
5363;SDS011;2705;41.410;2.160;2023-02-15T05:14:10;16.40;;;12.03;;
5363;SDS011;2705;41.410;2.160;2023-02-15T05:16:39;15.00;;;11.07;;
5363;SDS011;2705;41.410;2.160;2023-02-15T05:19:09;12.97;;;10.50;;
5363;SDS011;2705;41.410;2.160;2023-02-15T05:21:39;19.80;;;11.90;;
5363;SDS011;2705;41.410;2.160;2023-02-15T05:24:09;13.50;;;11.10;;
5363;SDS011;2705;41.410;2.160;2023-02-15T05:26:53;16.43;;;11.93;;
5363;SDS011;2705;41.410;2.160;2023-02-15T05:29:40;15.40;;;11.87;;
5363;SDS011;2705;41.410;2.160;2023-02-15T05:32:09;17.23;;;13.30;;
5363;SDS011;2705;41.410;2.160;2023-02-15T05:34:38;14.57;;;11.47;;
5363;SDS011;2705;41.410;2.160;2023-02-15T05:37:07;14.80;;;11.60;;
5363;SDS011;2705;41.410;2.160;2023-02-15T05:39:37;16.43;;;12.90;;
5363;SDS011;2705;41.410;2.160;2023-02-15T05:42:07;18.80;;;13.10;;
5363;SDS011;2705;41.410;2.160;2023-02-15T05:44:37;20.17;;;13.27;;
5363;SDS011;2705;41.410;2.160;2023-02-15T05:47:06;23.03;;;15.17;;
5363;SDS011;2705;41.410;2.160;2023-02-15T05:49:35;16.30;;;12.20;;
5363;SDS011;2705;41.410;2.160;2023-02-15T05:52:05;16.40;;;13.00;;
5363;SDS011;2705;41.410;2.160;2023-02-15T05:54:35;19.13;;;13.40;;
5363;SDS011;2705;41.410;2.160;2023-02-15T05:57:04;22.90;;;12.83;;
5363;SDS011;2705;41.410;2.160;2023-02-15T05:59:35;18.70;;;12.80;;
5363;SDS011;2705;41.410;2.160;2023-02-15T06:02:04;20.27;;;12.97;;
5363;SDS011;2705;41.410;2.160;2023-02-15T06:04:34;21.50;;;13.13;;
5363;SDS011;2705;41.410;2.160;2023-02-15T06:07:03;22.60;;;13.57;;
5363;SDS011;2705;41.410;2.160;2023-02-15T06:09:32;22.03;;;14.67;;
5363;SDS011;2705;41.410;2.160;2023-02-15T06:12:02;17.73;;;12.30;;
5363;SDS011;2705;41.410;2.160;2023-02-15T06:14:31;21.50;;;14.10;;
5363;SDS011;2705;41.410;2.160;2023-02-15T06:17:02;22.63;;;13.87;;
5363;SDS011;2705;41.410;2.160;2023-02-15T06:19:31;20.97;;;14.50;;
5363;SDS011;2705;41.410;2.160;2023-02-15T06:22:01;22.90;;;13.97;;
5363;SDS011;2705;41.410;2.160;2023-02-15T06:24:30;20.43;;;14.60;;
5363;SDS011;2705;41.410;2.160;2023-02-15T06:26:59;21.00;;;13.93;;
5363;SDS011;2705;41.410;2.160;2023-02-15T06:29:29;26.27;;;16.97;;
5363;SDS011;2705;41.410;2.160;2023-02-15T06:31:58;30.60;;;16.87;;
5363;SDS011;2705;41.410;2.160;2023-02-15T06:34:29;24.57;;;16.10;;
5363;SDS011;2705;41.410;2.160;2023-02-15T06:36:58;23.37;;;17.23;;
5363;SDS011;2705;41.410;2.160;2023-02-15T06:39:28;22.97;;;16.80;;
5363;SDS011;2705;41.410;2.160;2023-02-15T06:41:58;30.13;;;16.87;;
5363;SDS011;2705;41.410;2.160;2023-02-15T06:44:27;33.30;;;17.83;;
5363;SDS011;2705;41.410;2.160;2023-02-15T06:46:56;27.93;;;17.90;;
5363;SDS011;2705;41.410;2.160;2023-02-15T06:49:26;32.07;;;19.17;;
5363;SDS011;2705;41.410;2.160;2023-02-15T06:51:56;31.40;;;18.83;;
5363;SDS011;2705;41.410;2.160;2023-02-15T06:54:26;27.40;;;18.60;;
5363;SDS011;2705;41.410;2.160;2023-02-15T06:56:55;24.97;;;18.07;;
5363;SDS011;2705;41.410;2.160;2023-02-15T06:59:24;31.73;;;17.43;;
5363;SDS011;2705;41.410;2.160;2023-02-15T07:01:54;35.87;;;20.97;;
5363;SDS011;2705;41.410;2.160;2023-02-15T07:04:23;32.10;;;16.87;;
5363;SDS011;2705;41.410;2.160;2023-02-15T07:06:52;26.30;;;16.77;;
5363;SDS011;2705;41.410;2.160;2023-02-15T07:09:23;31.23;;;18.30;;
5363;SDS011;2705;41.410;2.160;2023-02-15T07:11:53;28.70;;;18.13;;
5363;SDS011;2705;41.410;2.160;2023-02-15T07:14:40;28.00;;;19.77;;
5363;SDS011;2705;41.410;2.160;2023-02-15T07:17:09;32.20;;;18.60;;
5363;SDS011;2705;41.410;2.160;2023-02-15T07:19:58;39.40;;;20.10;;
5363;SDS011;2705;41.410;2.160;2023-02-15T07:22:28;26.80;;;17.87;;
5363;SDS011;2705;41.410;2.160;2023-02-15T07:24:59;31.10;;;17.40;;
5363;SDS011;2705;41.410;2.160;2023-02-15T07:27:28;22.00;;;16.40;;
5363;SDS011;2705;41.410;2.160;2023-02-15T07:29:58;26.63;;;17.97;;
5363;SDS011;2705;41.410;2.160;2023-02-15T07:32:28;29.97;;;17.77;;
5363;SDS011;2705;41.410;2.160;2023-02-15T07:34:58;26.17;;;17.17;;
5363;SDS011;2705;41.410;2.160;2023-02-15T07:37:27;26.00;;;17.30;;
5363;SDS011;2705;41.410;2.160;2023-02-15T07:39:58;36.37;;;23.53;;
5363;SDS011;2705;41.410;2.160;2023-02-15T07:42:30;29.00;;;17.67;;
5363;SDS011;2705;41.410;2.160;2023-02-15T07:44:59;34.10;;;18.67;;
5363;SDS011;2705;41.410;2.160;2023-02-15T07:47:29;37.70;;;19.40;;
5363;SDS011;2705;41.410;2.160;2023-02-15T07:49:58;32.30;;;18.87;;
5363;SDS011;2705;41.410;2.160;2023-02-15T07:52:27;32.00;;;18.77;;
5363;SDS011;2705;41.410;2.160;2023-02-15T07:54:58;27.70;;;18.20;;
5363;SDS011;2705;41.410;2.160;2023-02-15T07:57:28;30.53;;;19.93;;
5363;SDS011;2705;41.410;2.160;2023-02-15T07:59:57;28.83;;;19.33;;
5363;SDS011;2705;41.410;2.160;2023-02-15T08:02:27;37.60;;;25.20;;
5363;SDS011;2705;41.410;2.160;2023-02-15T08:04:58;44.40;;;23.30;;
5363;SDS011;2705;41.410;2.160;2023-02-15T08:07:27;53.33;;;21.30;;
5363;SDS011;2705;41.410;2.160;2023-02-15T08:09:56;37.97;;;22.57;;
5363;SDS011;2705;41.410;2.160;2023-02-15T08:12:28;31.10;;;20.37;;
5363;SDS011;2705;41.410;2.160;2023-02-15T08:14:57;35.30;;;22.07;;
5363;SDS011;2705;41.410;2.160;2023-02-15T08:17:28;38.00;;;19.97;;
5363;SDS011;2705;41.410;2.160;2023-02-15T08:19:57;28.57;;;19.50;;
5363;SDS011;2705;41.410;2.160;2023-02-15T08:22:26;25.27;;;18.20;;
5363;SDS011;2705;41.410;2.160;2023-02-15T08:24:58;27.30;;;17.43;;
5363;SDS011;2705;41.410;2.160;2023-02-15T08:27:29;23.93;;;17.40;;
5363;SDS011;2705;41.410;2.160;2023-02-15T08:29:58;17.97;;;12.83;;
5363;SDS011;2705;41.410;2.160;2023-02-15T08:32:28;16.67;;;11.33;;
5363;SDS011;2705;41.410;2.160;2023-02-15T08:34:57;20.30;;;12.50;;
5363;SDS011;2705;41.410;2.160;2023-02-15T08:37:26;20.73;;;12.73;;
5363;SDS011;2705;41.410;2.160;2023-02-15T08:39:56;17.47;;;12.10;;
5363;SDS011;2705;41.410;2.160;2023-02-15T08:42:25;22.60;;;13.63;;
5363;SDS011;2705;41.410;2.160;2023-02-15T08:44:56;17.67;;;12.30;;
5363;SDS011;2705;41.410;2.160;2023-02-15T08:47:26;20.97;;;13.00;;
5363;SDS011;2705;41.410;2.160;2023-02-15T08:49:55;17.00;;;12.33;;
5363;SDS011;2705;41.410;2.160;2023-02-15T08:52:24;20.87;;;11.10;;
5363;SDS011;2705;41.410;2.160;2023-02-15T08:54:54;17.43;;;11.30;;
5363;SDS011;2705;41.410;2.160;2023-02-15T08:57:23;17.97;;;12.03;;
5363;SDS011;2705;41.410;2.160;2023-02-15T08:59:52;13.63;;;10.00;;
5363;SDS011;2705;41.410;2.160;2023-02-15T09:02:24;20.97;;;11.80;;
5363;SDS011;2705;41.410;2.160;2023-02-15T09:04:53;21.20;;;12.27;;
5363;SDS011;2705;41.410;2.160;2023-02-15T09:07:23;16.13;;;12.00;;
5363;SDS011;2705;41.410;2.160;2023-02-15T09:09:52;22.30;;;11.07;;
5363;SDS011;2705;41.410;2.160;2023-02-15T09:12:22;14.20;;;11.77;;
5363;SDS011;2705;41.410;2.160;2023-02-15T09:14:51;21.00;;;10.87;;
5363;SDS011;2705;41.410;2.160;2023-02-15T09:17:21;15.27;;;11.33;;
5363;SDS011;2705;41.410;2.160;2023-02-15T09:19:52;15.03;;;10.70;;
5363;SDS011;2705;41.410;2.160;2023-02-15T09:22:21;14.30;;;10.57;;
5363;SDS011;2705;41.410;2.160;2023-02-15T09:24:50;12.53;;;9.23;;
5363;SDS011;2705;41.410;2.160;2023-02-15T09:27:20;16.43;;;10.23;;
5363;SDS011;2705;41.410;2.160;2023-02-15T09:29:49;10.53;;;7.97;;
5363;SDS011;2705;41.410;2.160;2023-02-15T09:32:18;10.30;;;7.30;;
5363;SDS011;2705;41.410;2.160;2023-02-15T09:34:49;11.73;;;9.40;;
5363;SDS011;2705;41.410;2.160;2023-02-15T09:37:20;15.33;;;9.60;;
5363;SDS011;2705;41.410;2.160;2023-02-15T09:39:49;14.47;;;10.30;;
5363;SDS011;2705;41.410;2.160;2023-02-15T09:45:13;17.47;;;10.10;;
5363;SDS011;2705;41.410;2.160;2023-02-15T09:47:56;13.73;;;9.50;;
5363;SDS011;2705;41.410;2.160;2023-02-15T09:50:33;10.90;;;8.90;;
5363;SDS011;2705;41.410;2.160;2023-02-15T09:53:15;14.40;;;8.10;;
5363;SDS011;2705;41.410;2.160;2023-02-15T09:55:51;7.67;;;6.20;;
5363;SDS011;2705;41.410;2.160;2023-02-15T09:58:25;9.87;;;6.90;;
5363;SDS011;2705;41.410;2.160;2023-02-15T10:00:58;9.27;;;6.50;;
5363;SDS011;2705;41.410;2.160;2023-02-15T10:03:33;9.00;;;5.33;;
5363;SDS011;2705;41.410;2.160;2023-02-15T10:06:10;8.40;;;6.03;;
5363;SDS011;2705;41.410;2.160;2023-02-15T10:11:36;9.30;;;7.50;;
5363;SDS011;2705;41.410;2.160;2023-02-15T10:14:16;11.80;;;7.73;;
5363;SDS011;2705;41.410;2.160;2023-02-15T10:16:52;16.07;;;8.63;;
5363;SDS011;2705;41.410;2.160;2023-02-15T10:19:26;13.13;;;8.87;;
5363;SDS011;2705;41.410;2.160;2023-02-15T10:22:03;8.73;;;6.90;;
5363;SDS011;2705;41.410;2.160;2023-02-15T10:24:44;11.13;;;8.50;;
5363;SDS011;2705;41.410;2.160;2023-02-15T10:27:18;20.57;;;10.60;;
5363;SDS011;2705;41.410;2.160;2023-02-15T10:29:50;20.67;;;10.80;;
5363;SDS011;2705;41.410;2.160;2023-02-15T10:32:23;38.27;;;23.13;;
5363;SDS011;2705;41.410;2.160;2023-02-15T10:34:55;14.37;;;10.00;;
5363;SDS011;2705;41.410;2.160;2023-02-15T10:37:42;10.03;;;8.40;;
5363;SDS011;2705;41.410;2.160;2023-02-15T10:40:18;11.63;;;8.70;;
5363;SDS011;2705;41.410;2.160;2023-02-15T10:42:54;12.60;;;8.50;;
5363;SDS011;2705;41.410;2.160;2023-02-15T10:45:31;14.37;;;9.10;;
5363;SDS011;2705;41.410;2.160;2023-02-15T10:48:06;12.17;;;8.80;;
5363;SDS011;2705;41.410;2.160;2023-02-15T10:50:48;18.27;;;9.03;;
5363;SDS011;2705;41.410;2.160;2023-02-15T10:53:27;17.50;;;10.77;;
5363;SDS011;2705;41.410;2.160;2023-02-15T10:56:03;10.83;;;8.90;;
5363;SDS011;2705;41.410;2.160;2023-02-15T10:58:41;17.10;;;9.60;;
5363;SDS011;2705;41.410;2.160;2023-02-15T11:01:13;14.00;;;10.90;;
5363;SDS011;2705;41.410;2.160;2023-02-15T11:03:52;13.00;;;9.00;;
5363;SDS011;2705;41.410;2.160;2023-02-15T11:06:24;15.20;;;10.53;;
5363;SDS011;2705;41.410;2.160;2023-02-15T11:08:56;22.07;;;12.70;;
5363;SDS011;2705;41.410;2.160;2023-02-15T11:11:27;14.67;;;10.93;;
5363;SDS011;2705;41.410;2.160;2023-02-15T11:14:00;16.73;;;10.10;;
5363;SDS011;2705;41.410;2.160;2023-02-15T11:16:32;15.53;;;10.27;;
5363;SDS011;2705;41.410;2.160;2023-02-15T11:19:03;15.80;;;10.97;;
5363;SDS011;2705;41.410;2.160;2023-02-15T11:21:36;18.27;;;10.80;;
5363;SDS011;2705;41.410;2.160;2023-02-15T11:24:09;21.30;;;12.10;;
5363;SDS011;2705;41.410;2.160;2023-02-15T11:26:40;12.57;;;9.87;;
5363;SDS011;2705;41.410;2.160;2023-02-15T11:29:13;19.30;;;10.93;;
5363;SDS011;2705;41.410;2.160;2023-02-15T11:31:44;15.17;;;10.57;;
5363;SDS011;2705;41.410;2.160;2023-02-15T11:34:16;19.90;;;11.03;;
5363;SDS011;2705;41.410;2.160;2023-02-15T11:36:48;12.73;;;9.30;;
5363;SDS011;2705;41.410;2.160;2023-02-15T11:39:18;15.07;;;10.47;;
5363;SDS011;2705;41.410;2.160;2023-02-15T11:41:49;18.87;;;11.43;;
5363;SDS011;2705;41.410;2.160;2023-02-15T11:44:23;16.80;;;10.47;;
5363;SDS011;2705;41.410;2.160;2023-02-15T11:46:54;15.10;;;11.00;;
5363;SDS011;2705;41.410;2.160;2023-02-15T11:49:24;16.07;;;11.30;;
5363;SDS011;2705;41.410;2.160;2023-02-15T11:51:57;29.70;;;14.10;;
5363;SDS011;2705;41.410;2.160;2023-02-15T11:54:27;17.30;;;12.43;;
5363;SDS011;2705;41.410;2.160;2023-02-15T11:56:58;18.93;;;11.63;;
5363;SDS011;2705;41.410;2.160;2023-02-15T11:59:31;17.37;;;12.30;;
5363;SDS011;2705;41.410;2.160;2023-02-15T12:02:01;18.63;;;11.40;;
5363;SDS011;2705;41.410;2.160;2023-02-15T12:04:32;18.80;;;10.30;;
5363;SDS011;2705;41.410;2.160;2023-02-15T12:07:04;18.50;;;11.33;;
5363;SDS011;2705;41.410;2.160;2023-02-15T12:09:42;22.70;;;12.23;;
5363;SDS011;2705;41.410;2.160;2023-02-15T12:12:19;19.93;;;11.63;;
5363;SDS011;2705;41.410;2.160;2023-02-15T12:14:51;13.43;;;9.10;;
5363;SDS011;2705;41.410;2.160;2023-02-15T12:17:21;16.97;;;9.67;;
5363;SDS011;2705;41.410;2.160;2023-02-15T12:19:51;37.43;;;20.13;;
5363;SDS011;2705;41.410;2.160;2023-02-15T12:22:22;23.90;;;11.10;;
5363;SDS011;2705;41.410;2.160;2023-02-15T12:24:52;11.57;;;7.50;;
5363;SDS011;2705;41.410;2.160;2023-02-15T12:27:23;16.80;;;9.37;;
5363;SDS011;2705;41.410;2.160;2023-02-15T12:29:55;11.03;;;7.43;;
5363;SDS011;2705;41.410;2.160;2023-02-15T12:32:26;9.17;;;7.20;;
5363;SDS011;2705;41.410;2.160;2023-02-15T12:34:57;8.43;;;6.23;;
5363;SDS011;2705;41.410;2.160;2023-02-15T12:37:29;12.80;;;7.27;;
5363;SDS011;2705;41.410;2.160;2023-02-15T12:40:04;10.70;;;5.87;;
5363;SDS011;2705;41.410;2.160;2023-02-15T12:42:46;11.57;;;7.10;;
5363;SDS011;2705;41.410;2.160;2023-02-15T12:45:21;10.97;;;6.07;;
5363;SDS011;2705;41.410;2.160;2023-02-15T12:48:14;10.87;;;6.10;;
5363;SDS011;2705;41.410;2.160;2023-02-15T12:50:44;11.60;;;5.73;;
5363;SDS011;2705;41.410;2.160;2023-02-15T12:53:21;20.40;;;13.20;;
5363;SDS011;2705;41.410;2.160;2023-02-15T12:55:52;7.87;;;4.43;;
5363;SDS011;2705;41.410;2.160;2023-02-15T12:58:22;9.53;;;5.33;;
5363;SDS011;2705;41.410;2.160;2023-02-15T13:01:03;8.00;;;5.33;;
5363;SDS011;2705;41.410;2.160;2023-02-15T13:04:00;8.50;;;5.20;;
5363;SDS011;2705;41.410;2.160;2023-02-15T13:06:31;9.17;;;6.40;;
5363;SDS011;2705;41.410;2.160;2023-02-15T13:09:05;12.67;;;4.93;;
5363;SDS011;2705;41.410;2.160;2023-02-15T13:11:35;8.93;;;5.23;;
5363;SDS011;2705;41.410;2.160;2023-02-15T13:14:13;8.20;;;4.67;;
5363;SDS011;2705;41.410;2.160;2023-02-15T13:16:46;9.50;;;4.97;;
5363;SDS011;2705;41.410;2.160;2023-02-15T13:19:18;8.07;;;4.93;;
5363;SDS011;2705;41.410;2.160;2023-02-15T13:21:49;6.57;;;4.50;;
5363;SDS011;2705;41.410;2.160;2023-02-15T13:24:20;9.17;;;4.90;;
5363;SDS011;2705;41.410;2.160;2023-02-15T13:26:51;9.87;;;4.63;;
5363;SDS011;2705;41.410;2.160;2023-02-15T13:29:38;7.97;;;5.23;;
5363;SDS011;2705;41.410;2.160;2023-02-15T13:32:11;11.30;;;5.43;;
5363;SDS011;2705;41.410;2.160;2023-02-15T13:34:41;7.13;;;5.57;;
5363;SDS011;2705;41.410;2.160;2023-02-15T13:37:12;6.40;;;4.70;;
5363;SDS011;2705;41.410;2.160;2023-02-15T13:39:45;7.87;;;5.17;;
5363;SDS011;2705;41.410;2.160;2023-02-15T13:42:18;8.60;;;5.40;;
5363;SDS011;2705;41.410;2.160;2023-02-15T13:44:53;6.60;;;5.00;;
5363;SDS011;2705;41.410;2.160;2023-02-15T13:47:26;6.33;;;4.97;;
5363;SDS011;2705;41.410;2.160;2023-02-15T13:50:11;7.20;;;4.53;;
5363;SDS011;2705;41.410;2.160;2023-02-15T13:52:46;8.30;;;5.57;;
5363;SDS011;2705;41.410;2.160;2023-02-15T13:55:22;7.00;;;5.17;;
5363;SDS011;2705;41.410;2.160;2023-02-15T13:58:01;9.53;;;5.43;;
5363;SDS011;2705;41.410;2.160;2023-02-15T14:00:34;9.30;;;6.10;;
5363;SDS011;2705;41.410;2.160;2023-02-15T14:03:14;8.43;;;4.80;;
5363;SDS011;2705;41.410;2.160;2023-02-15T14:05:53;7.80;;;4.50;;
5363;SDS011;2705;41.410;2.160;2023-02-15T14:08:29;12.87;;;5.13;;
5363;SDS011;2705;41.410;2.160;2023-02-15T14:11:01;13.60;;;8.37;;
5363;SDS011;2705;41.410;2.160;2023-02-15T14:16:20;10.00;;;6.10;;
5363;SDS011;2705;41.410;2.160;2023-02-15T14:18:53;7.40;;;5.83;;
5363;SDS011;2705;41.410;2.160;2023-02-15T14:21:25;14.00;;;5.23;;
5363;SDS011;2705;41.410;2.160;2023-02-15T14:24:00;8.80;;;4.47;;
5363;SDS011;2705;41.410;2.160;2023-02-15T14:26:32;7.03;;;4.20;;
5363;SDS011;2705;41.410;2.160;2023-02-15T14:29:07;8.87;;;6.13;;
5363;SDS011;2705;41.410;2.160;2023-02-15T14:31:41;6.43;;;4.30;;
5363;SDS011;2705;41.410;2.160;2023-02-15T14:34:17;8.53;;;4.50;;
5363;SDS011;2705;41.410;2.160;2023-02-15T14:36:47;8.17;;;5.30;;
5363;SDS011;2705;41.410;2.160;2023-02-15T14:39:23;9.03;;;5.10;;
5363;SDS011;2705;41.410;2.160;2023-02-15T14:42:15;8.40;;;5.03;;
5363;SDS011;2705;41.410;2.160;2023-02-15T14:44:48;9.13;;;4.87;;
5363;SDS011;2705;41.410;2.160;2023-02-15T14:47:19;16.13;;;4.80;;
5363;SDS011;2705;41.410;2.160;2023-02-15T14:49:53;7.30;;;4.47;;
5363;SDS011;2705;41.410;2.160;2023-02-15T14:52:22;14.03;;;6.93;;
5363;SDS011;2705;41.410;2.160;2023-02-15T14:54:58;8.20;;;4.93;;
5363;SDS011;2705;41.410;2.160;2023-02-15T14:57:28;5.83;;;4.63;;
5363;SDS011;2705;41.410;2.160;2023-02-15T15:02:47;5.90;;;4.60;;
5363;SDS011;2705;41.410;2.160;2023-02-15T15:05:20;5.87;;;4.70;;
5363;SDS011;2705;41.410;2.160;2023-02-15T15:07:51;10.20;;;6.00;;
5363;SDS011;2705;41.410;2.160;2023-02-15T15:15:53;6.07;;;4.80;;
5363;SDS011;2705;41.410;2.160;2023-02-15T15:21:08;7.83;;;4.80;;
5363;SDS011;2705;41.410;2.160;2023-02-15T15:23:41;11.93;;;6.30;;
5363;SDS011;2705;41.410;2.160;2023-02-15T15:26:21;16.70;;;8.60;;
5363;SDS011;2705;41.410;2.160;2023-02-15T15:28:55;8.60;;;5.10;;
5363;SDS011;2705;41.410;2.160;2023-02-15T15:31:27;13.37;;;6.10;;
5363;SDS011;2705;41.410;2.160;2023-02-15T15:42:38;9.60;;;5.37;;
5363;SDS011;2705;41.410;2.160;2023-02-15T15:45:28;13.23;;;5.57;;
5363;SDS011;2705;41.410;2.160;2023-02-15T15:48:05;9.27;;;6.40;;
5363;SDS011;2705;41.410;2.160;2023-02-15T15:50:38;9.13;;;5.30;;
5363;SDS011;2705;41.410;2.160;2023-02-15T15:53:10;10.90;;;5.40;;
5363;SDS011;2705;41.410;2.160;2023-02-15T15:55:45;6.33;;;5.60;;
5363;SDS011;2705;41.410;2.160;2023-02-15T15:58:17;7.30;;;5.60;;